sensor_id;sensor_type;location;lat;lon;timestamp;P1;durP1;ratioP1;P2;durP2;ratioP2
13090;SDS011;6611;52.604;13.438;2022-08-01T00:02:14;5.00;;;4.03;;
13090;SDS011;6611;52.604;13.438;2022-08-01T00:04:46;4.13;;;3.80;;
13090;SDS011;6611;52.604;13.438;2022-08-01T00:07:18;4.57;;;4.17;;
13090;SDS011;6611;52.604;13.438;2022-08-01T00:09:51;4.60;;;4.30;;
13090;SDS011;6611;52.604;13.438;2022-08-01T00:12:24;4.70;;;4.20;;
13090;SDS011;6611;52.604;13.438;2022-08-01T00:14:56;4.73;;;3.80;;
13090;SDS011;6611;52.604;13.438;2022-08-01T00:17:28;4.97;;;4.43;;
13090;SDS011;6611;52.604;13.438;2022-08-01T00:20:00;4.73;;;4.23;;
13090;SDS011;6611;52.604;13.438;2022-08-01T00:22:33;4.77;;;4.37;;
13090;SDS011;6611;52.604;13.438;2022-08-01T00:25:06;5.00;;;4.60;;
13090;SDS011;6611;52.604;13.438;2022-08-01T00:27:39;6.03;;;4.87;;
13090;SDS011;6611;52.604;13.438;2022-08-01T00:30:12;5.03;;;4.53;;
13090;SDS011;6611;52.604;13.438;2022-08-01T00:32:43;5.30;;;4.80;;
13090;SDS011;6611;52.604;13.438;2022-08-01T00:35:16;5.57;;;5.07;;
13090;SDS011;6611;52.604;13.438;2022-08-01T00:37:48;5.77;;;5.23;;
13090;SDS011;6611;52.604;13.438;2022-08-01T00:40:21;5.80;;;5.30;;
13090;SDS011;6611;52.604;13.438;2022-08-01T00:42:55;5.77;;;5.13;;
13090;SDS011;6611;52.604;13.438;2022-08-01T00:45:27;5.60;;;5.20;;
13090;SDS011;6611;52.604;13.438;2022-08-01T00:47:59;6.30;;;4.87;;
13090;SDS011;6611;52.604;13.438;2022-08-01T00:50:31;5.60;;;5.10;;
13090;SDS011;6611;52.604;13.438;2022-08-01T00:53:03;6.20;;;5.60;;
13090;SDS011;6611;52.604;13.438;2022-08-01T00:55:35;6.13;;;5.53;;
13090;SDS011;6611;52.604;13.438;2022-08-01T00:58:09;6.07;;;5.47;;
13090;SDS011;6611;52.604;13.438;2022-08-01T01:00:41;6.63;;;5.93;;
13090;SDS011;6611;52.604;13.438;2022-08-01T01:03:14;6.43;;;5.77;;
13090;SDS011;6611;52.604;13.438;2022-08-01T01:05:48;6.70;;;6.00;;
13090;SDS011;6611;52.604;13.438;2022-08-01T01:08:24;6.47;;;5.93;;
13090;SDS011;6611;52.604;13.438;2022-08-01T01:11:03;6.97;;;6.37;;
13090;SDS011;6611;52.604;13.438;2022-08-01T01:13:43;6.37;;;5.77;;
13090;SDS011;6611;52.604;13.438;2022-08-01T01:16:20;7.30;;;6.70;;
13090;SDS011;6611;52.604;13.438;2022-08-01T01:18:54;7.23;;;6.53;;
13090;SDS011;6611;52.604;13.438;2022-08-01T01:21:39;6.60;;;6.00;;
13090;SDS011;6611;52.604;13.438;2022-08-01T01:24:33;6.17;;;5.67;;
13090;SDS011;6611;52.604;13.438;2022-08-01T01:27:16;6.53;;;6.03;;
13090;SDS011;6611;52.604;13.438;2022-08-01T01:29:56;6.27;;;5.63;;
13090;SDS011;6611;52.604;13.438;2022-08-01T01:32:31;6.70;;;6.10;;
13090;SDS011;6611;52.604;13.438;2022-08-01T01:35:05;6.80;;;6.10;;
13090;SDS011;6611;52.604;13.438;2022-08-01T01:37:40;6.90;;;6.10;;
13090;SDS011;6611;52.604;13.438;2022-08-01T01:40:14;6.03;;;5.53;;
13090;SDS011;6611;52.604;13.438;2022-08-01T01:42:47;6.80;;;6.20;;
13090;SDS011;6611;52.604;13.438;2022-08-01T01:45:24;6.67;;;5.90;;
13090;SDS011;6611;52.604;13.438;2022-08-01T01:47:56;6.47;;;5.87;;
13090;SDS011;6611;52.604;13.438;2022-08-01T01:50:29;8.07;;;6.57;;
13090;SDS011;6611;52.604;13.438;2022-08-01T01:53:02;6.60;;;5.97;;
13090;SDS011;6611;52.604;13.438;2022-08-01T01:55:36;7.47;;;6.77;;
13090;SDS011;6611;52.604;13.438;2022-08-01T01:58:09;7.20;;;6.60;;
13090;SDS011;6611;52.604;13.438;2022-08-01T02:00:45;7.27;;;6.57;;
13090;SDS011;6611;52.604;13.438;2022-08-01T02:03:19;7.03;;;6.33;;
13090;SDS011;6611;52.604;13.438;2022-08-01T02:05:53;6.93;;;6.33;;
13090;SDS011;6611;52.604;13.438;2022-08-01T02:08:26;7.00;;;6.30;;
13090;SDS011;6611;52.604;13.438;2022-08-01T02:11:00;7.07;;;6.37;;
13090;SDS011;6611;52.604;13.438;2022-08-01T02:13:53;6.40;;;5.90;;
13090;SDS011;6611;52.604;13.438;2022-08-01T02:16:29;7.13;;;6.50;;
13090;SDS011;6611;52.604;13.438;2022-08-01T02:19:05;8.23;;;6.93;;
13090;SDS011;6611;52.604;13.438;2022-08-01T02:21:38;7.57;;;6.87;;
13090;SDS011;6611;52.604;13.438;2022-08-01T02:24:13;7.03;;;6.43;;
13090;SDS011;6611;52.604;13.438;2022-08-01T02:26:46;7.03;;;6.43;;
13090;SDS011;6611;52.604;13.438;2022-08-01T02:29:19;6.50;;;5.90;;
13090;SDS011;6611;52.604;13.438;2022-08-01T02:31:56;6.97;;;6.33;;
13090;SDS011;6611;52.604;13.438;2022-08-01T02:34:29;7.13;;;6.60;;
13090;SDS011;6611;52.604;13.438;2022-08-01T02:37:03;7.03;;;6.43;;
13090;SDS011;6611;52.604;13.438;2022-08-01T02:39:36;6.83;;;6.13;;
13090;SDS011;6611;52.604;13.438;2022-08-01T02:42:10;7.20;;;6.60;;
13090;SDS011;6611;52.604;13.438;2022-08-01T02:44:43;7.37;;;6.77;;
13090;SDS011;6611;52.604;13.438;2022-08-01T02:47:19;6.67;;;6.03;;
13090;SDS011;6611;52.604;13.438;2022-08-01T02:49:53;7.20;;;6.63;;
13090;SDS011;6611;52.604;13.438;2022-08-01T02:52:26;7.27;;;6.63;;
13090;SDS011;6611;52.604;13.438;2022-08-01T02:55:01;7.70;;;7.07;;
13090;SDS011;6611;52.604;13.438;2022-08-01T02:57:34;7.17;;;6.57;;
13090;SDS011;6611;52.604;13.438;2022-08-01T03:00:08;6.67;;;6.07;;
13090;SDS011;6611;52.604;13.438;2022-08-01T03:02:42;7.00;;;6.30;;
13090;SDS011;6611;52.604;13.438;2022-08-01T03:05:15;7.27;;;6.60;;
13090;SDS011;6611;52.604;13.438;2022-08-01T03:07:49;7.80;;;7.00;;
13090;SDS011;6611;52.604;13.438;2022-08-01T03:10:22;7.13;;;6.43;;
13090;SDS011;6611;52.604;13.438;2022-08-01T03:12:55;7.17;;;6.57;;
13090;SDS011;6611;52.604;13.438;2022-08-01T03:15:27;6.63;;;6.00;;
13090;SDS011;6611;52.604;13.438;2022-08-01T03:18:03;7.03;;;6.20;;
13090;SDS011;6611;52.604;13.438;2022-08-01T03:20:39;7.30;;;6.53;;
13090;SDS011;6611;52.604;13.438;2022-08-01T03:23:12;7.77;;;7.17;;
13090;SDS011;6611;52.604;13.438;2022-08-01T03:25:48;7.30;;;6.70;;
13090;SDS011;6611;52.604;13.438;2022-08-01T03:28:22;7.37;;;6.77;;
13090;SDS011;6611;52.604;13.438;2022-08-01T03:30:54;7.53;;;6.83;;
13090;SDS011;6611;52.604;13.438;2022-08-01T03:33:28;7.30;;;6.70;;
13090;SDS011;6611;52.604;13.438;2022-08-01T03:36:00;7.17;;;6.67;;
13090;SDS011;6611;52.604;13.438;2022-08-01T03:38:35;6.50;;;6.00;;
13090;SDS011;6611;52.604;13.438;2022-08-01T03:41:11;7.17;;;6.47;;
13090;SDS011;6611;52.604;13.438;2022-08-01T03:43:46;7.13;;;6.60;;
13090;SDS011;6611;52.604;13.438;2022-08-01T03:46:35;7.43;;;6.67;;
13090;SDS011;6611;52.604;13.438;2022-08-01T03:49:14;7.97;;;7.13;;
13090;SDS011;6611;52.604;13.438;2022-08-01T03:51:49;7.60;;;6.83;;
13090;SDS011;6611;52.604;13.438;2022-08-01T03:54:24;6.83;;;6.23;;
13090;SDS011;6611;52.604;13.438;2022-08-01T03:56:59;8.17;;;7.37;;
13090;SDS011;6611;52.604;13.438;2022-08-01T03:59:31;7.80;;;7.13;;
13090;SDS011;6611;52.604;13.438;2022-08-01T04:02:06;6.97;;;6.40;;
13090;SDS011;6611;52.604;13.438;2022-08-01T04:04:40;7.30;;;6.70;;
13090;SDS011;6611;52.604;13.438;2022-08-01T04:07:22;7.57;;;6.73;;
13090;SDS011;6611;52.604;13.438;2022-08-01T04:09:54;7.47;;;6.87;;
13090;SDS011;6611;52.604;13.438;2022-08-01T04:12:26;7.87;;;7.17;;
13090;SDS011;6611;52.604;13.438;2022-08-01T04:14:58;7.00;;;6.40;;
13090;SDS011;6611;52.604;13.438;2022-08-01T04:17:30;7.27;;;6.60;;
13090;SDS011;6611;52.604;13.438;2022-08-01T04:20:04;7.13;;;6.53;;
13090;SDS011;6611;52.604;13.438;2022-08-01T04:22:36;6.57;;;6.00;;
13090;SDS011;6611;52.604;13.438;2022-08-01T04:25:09;7.10;;;6.40;;
13090;SDS011;6611;52.604;13.438;2022-08-01T04:27:46;7.17;;;6.57;;
13090;SDS011;6611;52.604;13.438;2022-08-01T04:30:20;7.00;;;6.40;;
13090;SDS011;6611;52.604;13.438;2022-08-01T04:32:57;7.03;;;6.33;;
13090;SDS011;6611;52.604;13.438;2022-08-01T04:35:32;7.53;;;6.83;;
13090;SDS011;6611;52.604;13.438;2022-08-01T04:38:07;8.73;;;7.80;;
13090;SDS011;6611;52.604;13.438;2022-08-01T04:40:40;11.27;;;8.17;;
13090;SDS011;6611;52.604;13.438;2022-08-01T04:43:12;8.70;;;7.40;;
13090;SDS011;6611;52.604;13.438;2022-08-01T04:45:46;11.60;;;7.90;;
13090;SDS011;6611;52.604;13.438;2022-08-01T04:48:18;9.40;;;8.53;;
13090;SDS011;6611;52.604;13.438;2022-08-01T04:50:53;8.67;;;7.77;;
13090;SDS011;6611;52.604;13.438;2022-08-01T04:53:26;9.67;;;8.77;;
13090;SDS011;6611;52.604;13.438;2022-08-01T04:55:58;9.43;;;8.53;;
13090;SDS011;6611;52.604;13.438;2022-08-01T04:58:30;9.50;;;8.60;;
13090;SDS011;6611;52.604;13.438;2022-08-01T05:01:02;10.03;;;8.90;;
13090;SDS011;6611;52.604;13.438;2022-08-01T05:03:34;10.50;;;9.50;;
13090;SDS011;6611;52.604;13.438;2022-08-01T05:06:08;9.43;;;8.10;;
13090;SDS011;6611;52.604;13.438;2022-08-01T05:08:40;10.93;;;9.87;;
13090;SDS011;6611;52.604;13.438;2022-08-01T05:11:11;10.60;;;9.60;;
13090;SDS011;6611;52.604;13.438;2022-08-01T05:13:44;11.17;;;9.93;;
13090;SDS011;6611;52.604;13.438;2022-08-01T05:16:16;11.37;;;10.20;;
13090;SDS011;6611;52.604;13.438;2022-08-01T05:18:48;11.10;;;9.93;;
13090;SDS011;6611;52.604;13.438;2022-08-01T05:21:22;10.50;;;9.43;;
13090;SDS011;6611;52.604;13.438;2022-08-01T05:23:54;10.47;;;9.47;;
13090;SDS011;6611;52.604;13.438;2022-08-01T05:26:26;12.00;;;10.63;;
13090;SDS011;6611;52.604;13.438;2022-08-01T05:28:58;10.80;;;9.63;;
13090;SDS011;6611;52.604;13.438;2022-08-01T05:31:30;11.47;;;10.37;;
13090;SDS011;6611;52.604;13.438;2022-08-01T05:34:04;11.87;;;10.67;;
13090;SDS011;6611;52.604;13.438;2022-08-01T05:36:37;12.43;;;11.13;;
13090;SDS011;6611;52.604;13.438;2022-08-01T05:39:09;12.97;;;11.67;;
13090;SDS011;6611;52.604;13.438;2022-08-01T05:41:42;12.37;;;11.17;;
13090;SDS011;6611;52.604;13.438;2022-08-01T05:44:14;12.40;;;11.20;;
13090;SDS011;6611;52.604;13.438;2022-08-01T05:46:46;11.20;;;10.13;;
13090;SDS011;6611;52.604;13.438;2022-08-01T05:49:18;12.07;;;10.87;;
13090;SDS011;6611;52.604;13.438;2022-08-01T05:51:51;11.33;;;10.20;;
13090;SDS011;6611;52.604;13.438;2022-08-01T05:54:24;12.70;;;11.30;;
13090;SDS011;6611;52.604;13.438;2022-08-01T05:56:56;9.53;;;8.60;;
13090;SDS011;6611;52.604;13.438;2022-08-01T05:59:31;12.40;;;11.13;;
13090;SDS011;6611;52.604;13.438;2022-08-01T06:02:04;12.67;;;11.53;;
13090;SDS011;6611;52.604;13.438;2022-08-01T06:04:36;12.07;;;10.87;;
13090;SDS011;6611;52.604;13.438;2022-08-01T06:07:09;11.67;;;10.47;;
13090;SDS011;6611;52.604;13.438;2022-08-01T06:09:41;11.43;;;10.33;;
13090;SDS011;6611;52.604;13.438;2022-08-01T06:12:13;11.57;;;10.37;;
13090;SDS011;6611;52.604;13.438;2022-08-01T06:14:45;10.60;;;9.60;;
13090;SDS011;6611;52.604;13.438;2022-08-01T06:17:17;11.80;;;10.63;;
13090;SDS011;6611;52.604;13.438;2022-08-01T06:19:50;11.00;;;9.90;;
13090;SDS011;6611;52.604;13.438;2022-08-01T06:22:23;11.40;;;10.40;;
13090;SDS011;6611;52.604;13.438;2022-08-01T06:24:55;11.03;;;9.93;;
13090;SDS011;6611;52.604;13.438;2022-08-01T06:27:27;11.83;;;10.73;;
13090;SDS011;6611;52.604;13.438;2022-08-01T06:29:59;10.83;;;9.80;;
13090;SDS011;6611;52.604;13.438;2022-08-01T06:32:31;10.80;;;9.70;;
13090;SDS011;6611;52.604;13.438;2022-08-01T06:35:04;9.57;;;8.73;;
13090;SDS011;6611;52.604;13.438;2022-08-01T06:37:37;8.93;;;8.03;;
13090;SDS011;6611;52.604;13.438;2022-08-01T06:40:10;8.87;;;7.60;;
13090;SDS011;6611;52.604;13.438;2022-08-01T06:42:42;8.03;;;7.30;;
13090;SDS011;6611;52.604;13.438;2022-08-01T06:45:15;7.43;;;6.63;;
13090;SDS011;6611;52.604;13.438;2022-08-01T06:47:48;7.03;;;6.33;;
13090;SDS011;6611;52.604;13.438;2022-08-01T06:50:20;7.27;;;6.60;;
13090;SDS011;6611;52.604;13.438;2022-08-01T06:52:54;5.90;;;5.40;;
13090;SDS011;6611;52.604;13.438;2022-08-01T06:55:25;5.30;;;4.80;;
13090;SDS011;6611;52.604;13.438;2022-08-01T06:57:58;5.53;;;4.70;;
13090;SDS011;6611;52.604;13.438;2022-08-01T07:00:30;5.03;;;4.63;;
13090;SDS011;6611;52.604;13.438;2022-08-01T07:03:02;5.37;;;4.87;;
13090;SDS011;6611;52.604;13.438;2022-08-01T07:05:34;5.30;;;4.80;;
13090;SDS011;6611;52.604;13.438;2022-08-01T07:08:07;5.53;;;4.17;;
13090;SDS011;6611;52.604;13.438;2022-08-01T07:10:40;5.13;;;4.73;;
13090;SDS011;6611;52.604;13.438;2022-08-01T07:13:13;4.60;;;4.20;;
13090;SDS011;6611;52.604;13.438;2022-08-01T07:15:50;5.40;;;4.93;;
13090;SDS011;6611;52.604;13.438;2022-08-01T07:18:23;4.97;;;4.57;;
13090;SDS011;6611;52.604;13.438;2022-08-01T07:20:54;6.53;;;5.10;;
13090;SDS011;6611;52.604;13.438;2022-08-01T07:23:28;5.20;;;4.77;;
13090;SDS011;6611;52.604;13.438;2022-08-01T07:26:00;5.00;;;4.50;;
13090;SDS011;6611;52.604;13.438;2022-08-01T07:28:32;4.83;;;4.43;;
13090;SDS011;6611;52.604;13.438;2022-08-01T07:31:04;5.00;;;4.60;;
13090;SDS011;6611;52.604;13.438;2022-08-01T07:33:36;4.33;;;3.93;;
13090;SDS011;6611;52.604;13.438;2022-08-01T07:36:08;4.73;;;4.20;;
13090;SDS011;6611;52.604;13.438;2022-08-01T07:38:42;4.70;;;4.30;;
13090;SDS011;6611;52.604;13.438;2022-08-01T07:41:14;5.20;;;4.70;;
13090;SDS011;6611;52.604;13.438;2022-08-01T07:43:46;5.20;;;4.70;;
13090;SDS011;6611;52.604;13.438;2022-08-01T07:46:19;4.30;;;3.93;;
13090;SDS011;6611;52.604;13.438;2022-08-01T07:48:51;4.73;;;4.33;;
13090;SDS011;6611;52.604;13.438;2022-08-01T07:51:23;4.10;;;3.80;;
13090;SDS011;6611;52.604;13.438;2022-08-01T07:53:56;4.40;;;3.90;;
13090;SDS011;6611;52.604;13.438;2022-08-01T07:56:28;3.87;;;3.53;;
13090;SDS011;6611;52.604;13.438;2022-08-01T07:59:00;4.07;;;3.77;;
13090;SDS011;6611;52.604;13.438;2022-08-01T08:01:32;4.33;;;3.93;;
13090;SDS011;6611;52.604;13.438;2022-08-01T08:04:04;4.20;;;3.80;;
13090;SDS011;6611;52.604;13.438;2022-08-01T08:06:36;4.00;;;3.70;;
13090;SDS011;6611;52.604;13.438;2022-08-01T08:09:10;3.70;;;3.40;;
13090;SDS011;6611;52.604;13.438;2022-08-01T08:11:42;4.30;;;3.30;;
13090;SDS011;6611;52.604;13.438;2022-08-01T08:14:14;3.87;;;3.30;;
13090;SDS011;6611;52.604;13.438;2022-08-01T08:16:47;4.30;;;3.90;;
13090;SDS011;6611;52.604;13.438;2022-08-01T08:19:19;4.00;;;3.57;;
13090;SDS011;6611;52.604;13.438;2022-08-01T08:21:51;3.83;;;3.53;;
13090;SDS011;6611;52.604;13.438;2022-08-01T08:24:24;3.60;;;3.17;;
13090;SDS011;6611;52.604;13.438;2022-08-01T08:26:57;3.50;;;3.20;;
13090;SDS011;6611;52.604;13.438;2022-08-01T08:29:30;3.70;;;3.40;;
13090;SDS011;6611;52.604;13.438;2022-08-01T08:32:04;3.90;;;3.47;;
13090;SDS011;6611;52.604;13.438;2022-08-01T08:34:37;3.80;;;3.50;;
13090;SDS011;6611;52.604;13.438;2022-08-01T08:37:09;3.30;;;3.10;;
13090;SDS011;6611;52.604;13.438;2022-08-01T08:39:42;3.80;;;3.47;;
13090;SDS011;6611;52.604;13.438;2022-08-01T08:42:15;3.63;;;3.33;;
13090;SDS011;6611;52.604;13.438;2022-08-01T08:44:47;3.50;;;3.20;;
13090;SDS011;6611;52.604;13.438;2022-08-01T08:47:19;3.10;;;2.90;;
13090;SDS011;6611;52.604;13.438;2022-08-01T08:49:54;3.40;;;3.10;;
13090;SDS011;6611;52.604;13.438;2022-08-01T08:52:28;3.33;;;3.03;;
13090;SDS011;6611;52.604;13.438;2022-08-01T08:55:03;2.53;;;2.33;;
13090;SDS011;6611;52.604;13.438;2022-08-01T08:57:36;2.87;;;2.67;;
13090;SDS011;6611;52.604;13.438;2022-08-01T09:00:12;4.70;;;2.57;;
13090;SDS011;6611;52.604;13.438;2022-08-01T09:02:47;2.60;;;2.40;;
13090;SDS011;6611;52.604;13.438;2022-08-01T09:05:20;2.63;;;2.43;;
13090;SDS011;6611;52.604;13.438;2022-08-01T09:07:55;2.90;;;2.40;;
13090;SDS011;6611;52.604;13.438;2022-08-01T09:10:29;3.20;;;2.30;;
13090;SDS011;6611;52.604;13.438;2022-08-01T09:13:04;2.40;;;2.20;;
13090;SDS011;6611;52.604;13.438;2022-08-01T09:15:41;2.10;;;1.90;;
13090;SDS011;6611;52.604;13.438;2022-08-01T09:18:25;2.03;;;1.70;;
13090;SDS011;6611;52.604;13.438;2022-08-01T09:21:07;2.63;;;1.90;;
13090;SDS011;6611;52.604;13.438;2022-08-01T09:23:40;1.90;;;1.80;;
13090;SDS011;6611;52.604;13.438;2022-08-01T09:26:16;2.00;;;1.80;;
13090;SDS011;6611;52.604;13.438;2022-08-01T09:28:49;3.10;;;2.10;;
13090;SDS011;6611;52.604;13.438;2022-08-01T09:31:21;2.50;;;2.30;;
13090;SDS011;6611;52.604;13.438;2022-08-01T09:33:55;2.27;;;2.00;;
13090;SDS011;6611;52.604;13.438;2022-08-01T09:39:18;3.33;;;2.20;;
13090;SDS011;6611;52.604;13.438;2022-08-01T09:41:53;2.10;;;2.00;;
13090;SDS011;6611;52.604;13.438;2022-08-01T09:44:38;2.47;;;2.03;;
13090;SDS011;6611;52.604;13.438;2022-08-01T09:47:11;2.77;;;2.10;;
13090;SDS011;6611;52.604;13.438;2022-08-01T09:49:43;2.60;;;2.17;;
13090;SDS011;6611;52.604;13.438;2022-08-01T09:52:16;2.00;;;1.80;;
13090;SDS011;6611;52.604;13.438;2022-08-01T09:54:51;2.47;;;2.20;;
13090;SDS011;6611;52.604;13.438;2022-08-01T09:57:28;2.40;;;2.20;;
13090;SDS011;6611;52.604;13.438;2022-08-01T10:00:01;2.70;;;2.50;;
13090;SDS011;6611;52.604;13.438;2022-08-01T10:02:33;3.20;;;2.67;;
13090;SDS011;6611;52.604;13.438;2022-08-01T10:05:06;3.37;;;2.50;;
13090;SDS011;6611;52.604;13.438;2022-08-01T10:07:54;2.30;;;2.10;;
13090;SDS011;6611;52.604;13.438;2022-08-01T10:10:27;2.37;;;2.17;;
13090;SDS011;6611;52.604;13.438;2022-08-01T10:13:00;2.40;;;2.20;;
13090;SDS011;6611;52.604;13.438;2022-08-01T10:15:33;2.77;;;2.57;;
13090;SDS011;6611;52.604;13.438;2022-08-01T10:18:06;2.80;;;2.50;;
13090;SDS011;6611;52.604;13.438;2022-08-01T10:20:40;2.70;;;2.50;;
13090;SDS011;6611;52.604;13.438;2022-08-01T10:23:12;3.60;;;3.30;;
13090;SDS011;6611;52.604;13.438;2022-08-01T10:25:44;3.23;;;2.60;;
13090;SDS011;6611;52.604;13.438;2022-08-01T10:28:18;3.00;;;2.70;;
13090;SDS011;6611;52.604;13.438;2022-08-01T10:30:52;2.90;;;2.70;;
13090;SDS011;6611;52.604;13.438;2022-08-01T10:33:24;3.00;;;2.37;;
13090;SDS011;6611;52.604;13.438;2022-08-01T10:35:57;3.17;;;2.70;;
13090;SDS011;6611;52.604;13.438;2022-08-01T10:38:29;2.70;;;2.47;;
13090;SDS011;6611;52.604;13.438;2022-08-01T10:41:02;2.77;;;2.30;;
13090;SDS011;6611;52.604;13.438;2022-08-01T10:43:36;2.07;;;1.87;;
13090;SDS011;6611;52.604;13.438;2022-08-01T10:46:07;2.43;;;2.23;;
13090;SDS011;6611;52.604;13.438;2022-08-01T10:48:42;1.87;;;1.70;;
13090;SDS011;6611;52.604;13.438;2022-08-01T10:51:20;2.00;;;1.90;;
13090;SDS011;6611;52.604;13.438;2022-08-01T10:53:53;2.20;;;2.00;;
13090;SDS011;6611;52.604;13.438;2022-08-01T10:56:27;2.27;;;2.07;;
13090;SDS011;6611;52.604;13.438;2022-08-01T10:59:12;2.43;;;1.87;;
13090;SDS011;6611;52.604;13.438;2022-08-01T11:01:51;1.90;;;1.80;;
13090;SDS011;6611;52.604;13.438;2022-08-01T11:04:41;3.47;;;1.87;;
13090;SDS011;6611;52.604;13.438;2022-08-01T11:07:21;2.63;;;1.80;;
13090;SDS011;6611;52.604;13.438;2022-08-01T11:09:58;1.77;;;1.60;;
13090;SDS011;6611;52.604;13.438;2022-08-01T11:12:37;1.80;;;1.70;;
13090;SDS011;6611;52.604;13.438;2022-08-01T11:15:19;2.70;;;1.80;;
13090;SDS011;6611;52.604;13.438;2022-08-01T11:18:01;2.87;;;1.67;;
13090;SDS011;6611;52.604;13.438;2022-08-01T11:20:34;1.03;;;1.00;;
13090;SDS011;6611;52.604;13.438;2022-08-01T11:23:16;1.30;;;1.17;;
13090;SDS011;6611;52.604;13.438;2022-08-01T11:29:11;1.13;;;1.10;;
13090;SDS011;6611;52.604;13.438;2022-08-01T11:31:45;1.10;;;1.00;;
13090;SDS011;6611;52.604;13.438;2022-08-01T11:34:18;2.10;;;1.10;;
13090;SDS011;6611;52.604;13.438;2022-08-01T11:36:50;1.70;;;1.00;;
13090;SDS011;6611;52.604;13.438;2022-08-01T11:39:42;2.63;;;1.20;;
13090;SDS011;6611;52.604;13.438;2022-08-01T11:42:17;1.40;;;1.30;;
13090;SDS011;6611;52.604;13.438;2022-08-01T11:44:49;1.60;;;1.40;;
13090;SDS011;6611;52.604;13.438;2022-08-01T11:50:33;1.43;;;1.33;;
13090;SDS011;6611;52.604;13.438;2022-08-01T11:53:06;1.87;;;1.60;;
13090;SDS011;6611;52.604;13.438;2022-08-01T11:55:38;1.63;;;1.20;;
13090;SDS011;6611;52.604;13.438;2022-08-01T11:58:20;1.33;;;1.23;;
13090;SDS011;6611;52.604;13.438;2022-08-01T12:00:53;1.43;;;1.20;;
13090;SDS011;6611;52.604;13.438;2022-08-01T12:03:27;1.40;;;1.30;;
13090;SDS011;6611;52.604;13.438;2022-08-01T12:06:02;1.27;;;1.17;;
13090;SDS011;6611;52.604;13.438;2022-08-01T12:08:34;3.03;;;1.10;;
13090;SDS011;6611;52.604;13.438;2022-08-01T12:11:06;2.00;;;1.30;;
13090;SDS011;6611;52.604;13.438;2022-08-01T12:13:41;1.10;;;0.90;;
13090;SDS011;6611;52.604;13.438;2022-08-01T12:16:14;1.10;;;1.00;;
13090;SDS011;6611;52.604;13.438;2022-08-01T12:18:47;1.00;;;0.90;;
13090;SDS011;6611;52.604;13.438;2022-08-01T12:21:20;1.10;;;0.97;;
13090;SDS011;6611;52.604;13.438;2022-08-01T12:23:59;1.50;;;1.07;;
13090;SDS011;6611;52.604;13.438;2022-08-01T12:26:38;1.30;;;1.17;;
13090;SDS011;6611;52.604;13.438;2022-08-01T12:29:11;1.23;;;1.00;;
13090;SDS011;6611;52.604;13.438;2022-08-01T12:32:02;1.40;;;1.30;;
13090;SDS011;6611;52.604;13.438;2022-08-01T12:34:36;1.50;;;1.40;;
13090;SDS011;6611;52.604;13.438;2022-08-01T12:37:08;1.43;;;1.20;;
13090;SDS011;6611;52.604;13.438;2022-08-01T12:39:40;1.17;;;1.07;;
13090;SDS011;6611;52.604;13.438;2022-08-01T12:42:12;2.10;;;1.23;;
13090;SDS011;6611;52.604;13.438;2022-08-01T12:44:45;2.13;;;1.20;;
13090;SDS011;6611;52.604;13.438;2022-08-01T12:47:21;1.57;;;1.40;;
13090;SDS011;6611;52.604;13.438;2022-08-01T12:49:55;1.53;;;1.40;;
13090;SDS011;6611;52.604;13.438;2022-08-01T12:52:27;1.60;;;1.40;;
13090;SDS011;6611;52.604;13.438;2022-08-01T12:55:04;2.00;;;1.40;;
13090;SDS011;6611;52.604;13.438;2022-08-01T12:57:41;1.77;;;1.40;;
13090;SDS011;6611;52.604;13.438;2022-08-01T13:00:17;3.37;;;1.47;;
13090;SDS011;6611;52.604;13.438;2022-08-01T13:02:59;1.30;;;1.20;;
13090;SDS011;6611;52.604;13.438;2022-08-01T13:05:41;2.17;;;1.50;;
13090;SDS011;6611;52.604;13.438;2022-08-01T13:08:15;1.40;;;1.30;;
13090;SDS011;6611;52.604;13.438;2022-08-01T13:10:48;1.67;;;1.30;;
13090;SDS011;6611;52.604;13.438;2022-08-01T13:13:21;1.70;;;1.60;;
13090;SDS011;6611;52.604;13.438;2022-08-01T13:16:02;1.77;;;1.20;;
13090;SDS011;6611;52.604;13.438;2022-08-01T13:18:35;1.80;;;1.47;;
13090;SDS011;6611;52.604;13.438;2022-08-01T13:21:10;1.97;;;1.73;;
13090;SDS011;6611;52.604;13.438;2022-08-01T13:23:59;1.60;;;1.50;;
13090;SDS011;6611;52.604;13.438;2022-08-01T13:26:39;1.47;;;1.37;;
13090;SDS011;6611;52.604;13.438;2022-08-01T13:29:12;1.40;;;1.30;;
13090;SDS011;6611;52.604;13.438;2022-08-01T13:31:45;1.90;;;1.70;;
13090;SDS011;6611;52.604;13.438;2022-08-01T13:34:17;1.80;;;1.70;;
13090;SDS011;6611;52.604;13.438;2022-08-01T13:36:50;1.60;;;1.50;;
13090;SDS011;6611;52.604;13.438;2022-08-01T13:39:23;1.47;;;1.37;;
13090;SDS011;6611;52.604;13.438;2022-08-01T13:42:15;2.33;;;1.50;;
13090;SDS011;6611;52.604;13.438;2022-08-01T13:44:47;2.30;;;1.77;;
13090;SDS011;6611;52.604;13.438;2022-08-01T13:47:19;1.47;;;1.37;;
13090;SDS011;6611;52.604;13.438;2022-08-01T13:49:51;2.03;;;1.60;;
13090;SDS011;6611;52.604;13.438;2022-08-01T13:52:25;1.80;;;1.70;;
13090;SDS011;6611;52.604;13.438;2022-08-01T13:54:57;1.60;;;1.50;;
13090;SDS011;6611;52.604;13.438;2022-08-01T13:57:29;2.17;;;1.60;;
13090;SDS011;6611;52.604;13.438;2022-08-01T14:00:01;2.47;;;1.90;;
13090;SDS011;6611;52.604;13.438;2022-08-01T14:02:33;2.17;;;1.70;;
13090;SDS011;6611;52.604;13.438;2022-08-01T14:05:06;1.80;;;1.70;;
13090;SDS011;6611;52.604;13.438;2022-08-01T14:07:39;2.13;;;1.90;;
13090;SDS011;6611;52.604;13.438;2022-08-01T14:10:11;3.07;;;1.80;;
13090;SDS011;6611;52.604;13.438;2022-08-01T14:12:43;1.90;;;1.80;;
13090;SDS011;6611;52.604;13.438;2022-08-01T14:15:15;2.17;;;1.73;;
13090;SDS011;6611;52.604;13.438;2022-08-01T14:17:48;1.70;;;1.60;;
13090;SDS011;6611;52.604;13.438;2022-08-01T14:20:20;1.63;;;1.53;;
13090;SDS011;6611;52.604;13.438;2022-08-01T14:22:53;1.60;;;1.50;;
13090;SDS011;6611;52.604;13.438;2022-08-01T14:25:25;2.13;;;1.50;;
13090;SDS011;6611;52.604;13.438;2022-08-01T14:27:57;3.13;;;1.60;;
13090;SDS011;6611;52.604;13.438;2022-08-01T14:30:30;1.67;;;1.57;;
13090;SDS011;6611;52.604;13.438;2022-08-01T14:33:02;1.50;;;1.40;;
13090;SDS011;6611;52.604;13.438;2022-08-01T14:35:34;1.40;;;1.30;;
13090;SDS011;6611;52.604;13.438;2022-08-01T14:38:07;1.60;;;1.10;;
13090;SDS011;6611;52.604;13.438;2022-08-01T14:40:39;2.63;;;1.47;;
13090;SDS011;6611;52.604;13.438;2022-08-01T14:43:12;2.23;;;1.40;;
13090;SDS011;6611;52.604;13.438;2022-08-01T14:45:45;1.70;;;1.33;;
13090;SDS011;6611;52.604;13.438;2022-08-01T14:48:19;1.73;;;1.63;;
13090;SDS011;6611;52.604;13.438;2022-08-01T14:50:51;1.30;;;1.20;;
13090;SDS011;6611;52.604;13.438;2022-08-01T14:53:25;2.23;;;1.40;;
13090;SDS011;6611;52.604;13.438;2022-08-01T14:55:57;1.40;;;1.30;;
13090;SDS011;6611;52.604;13.438;2022-08-01T14:58:29;1.87;;;1.40;;
13090;SDS011;6611;52.604;13.438;2022-08-01T15:01:01;2.67;;;1.50;;
13090;SDS011;6611;52.604;13.438;2022-08-01T15:03:35;1.60;;;1.50;;
13090;SDS011;6611;52.604;13.438;2022-08-01T15:06:07;0.97;;;0.97;;
13090;SDS011;6611;52.604;13.438;2022-08-01T15:08:42;1.30;;;1.20;;
13090;SDS011;6611;52.604;13.438;2022-08-01T15:11:14;1.20;;;0.93;;
13090;SDS011;6611;52.604;13.438;2022-08-01T15:13:47;2.43;;;1.10;;
13090;SDS011;6611;52.604;13.438;2022-08-01T15:16:40;1.23;;;1.10;;
13090;SDS011;6611;52.604;13.438;2022-08-01T15:19:12;2.63;;;1.00;;
13090;SDS011;6611;52.604;13.438;2022-08-01T15:21:44;1.70;;;0.90;;
13090;SDS011;6611;52.604;13.438;2022-08-01T15:24:17;0.80;;;0.73;;
13090;SDS011;6611;52.604;13.438;2022-08-01T15:26:49;0.90;;;0.80;;
13090;SDS011;6611;52.604;13.438;2022-08-01T15:29:21;1.33;;;0.70;;
13090;SDS011;6611;52.604;13.438;2022-08-01T15:31:53;1.67;;;1.10;;
13090;SDS011;6611;52.604;13.438;2022-08-01T15:34:26;0.77;;;0.77;;
13090;SDS011;6611;52.604;13.438;2022-08-01T15:36:58;1.53;;;0.80;;